sensor_id;sensor_type;location;lat;lon;timestamp;P1;durP1;ratioP1;P2;durP2;ratioP2
21663;SDS011;10993;52.510;13.456;2023-08-12T00:03:11;7.20;;;3.30;;
21663;SDS011;10993;52.510;13.456;2023-08-12T00:08:11;5.60;;;3.47;;
21663;SDS011;10993;52.510;13.456;2023-08-12T00:13:12;6.38;;;3.85;;
21663;SDS011;10993;52.510;13.456;2023-08-12T00:18:15;5.72;;;3.33;;
21663;SDS011;10993;52.510;13.456;2023-08-12T00:23:17;4.47;;;3.25;;
21663;SDS011;10993;52.510;13.456;2023-08-12T00:28:17;6.10;;;3.60;;
21663;SDS011;10993;52.510;13.456;2023-08-12T00:33:19;5.40;;;3.20;;
21663;SDS011;10993;52.510;13.456;2023-08-12T00:38:19;5.40;;;3.40;;
21663;SDS011;10993;52.510;13.456;2023-08-12T00:43:20;7.60;;;3.55;;
21663;SDS011;10993;52.510;13.456;2023-08-12T00:48:21;4.68;;;3.30;;
21663;SDS011;10993;52.510;13.456;2023-08-12T00:53:23;8.40;;;3.60;;
21663;SDS011;10993;52.510;13.456;2023-08-12T00:58:23;5.40;;;3.13;;
21663;SDS011;10993;52.510;13.456;2023-08-12T01:03:26;5.80;;;3.35;;
21663;SDS011;10993;52.510;13.456;2023-08-12T01:08:28;6.38;;;3.38;;
21663;SDS011;10993;52.510;13.456;2023-08-12T01:13:32;5.45;;;3.40;;
21663;SDS011;10993;52.510;13.456;2023-08-12T01:18:41;8.18;;;3.38;;
21663;SDS011;10993;52.510;13.456;2023-08-12T01:23:44;7.72;;;3.50;;
21663;SDS011;10993;52.510;13.456;2023-08-12T01:28:44;7.10;;;3.05;;
21663;SDS011;10993;52.510;13.456;2023-08-12T01:33:46;5.23;;;3.40;;
21663;SDS011;10993;52.510;13.456;2023-08-12T01:38:54;6.25;;;3.42;;
21663;SDS011;10993;52.510;13.456;2023-08-12T01:43:56;5.93;;;3.22;;
21663;SDS011;10993;52.510;13.456;2023-08-12T01:48:56;4.78;;;3.38;;
21663;SDS011;10993;52.510;13.456;2023-08-12T01:53:58;5.72;;;3.40;;
21663;SDS011;10993;52.510;13.456;2023-08-12T01:58:58;6.80;;;3.78;;
21663;SDS011;10993;52.510;13.456;2023-08-12T02:03:59;5.03;;;3.30;;
21663;SDS011;10993;52.510;13.456;2023-08-12T02:09:00;6.47;;;3.43;;
21663;SDS011;10993;52.510;13.456;2023-08-12T02:14:00;4.32;;;3.30;;
21663;SDS011;10993;52.510;13.456;2023-08-12T02:19:01;5.88;;;3.47;;
21663;SDS011;10993;52.510;13.456;2023-08-12T02:24:03;7.97;;;3.90;;
21663;SDS011;10993;52.510;13.456;2023-08-12T02:29:03;8.07;;;3.50;;
21663;SDS011;10993;52.510;13.456;2023-08-12T02:34:04;7.70;;;3.63;;
21663;SDS011;10993;52.510;13.456;2023-08-12T02:39:05;4.97;;;3.33;;
21663;SDS011;10993;52.510;13.456;2023-08-12T02:44:06;7.85;;;3.70;;
21663;SDS011;10993;52.510;13.456;2023-08-12T02:49:06;5.10;;;3.53;;
21663;SDS011;10993;52.510;13.456;2023-08-12T02:54:08;5.72;;;3.45;;
21663;SDS011;10993;52.510;13.456;2023-08-12T02:59:08;6.00;;;3.80;;
21663;SDS011;10993;52.510;13.456;2023-08-12T03:04:09;4.38;;;3.22;;
21663;SDS011;10993;52.510;13.456;2023-08-12T03:09:10;6.37;;;3.20;;
21663;SDS011;10993;52.510;13.456;2023-08-12T03:14:11;7.05;;;3.28;;
21663;SDS011;10993;52.510;13.456;2023-08-12T03:19:11;6.57;;;3.80;;
21663;SDS011;10993;52.510;13.456;2023-08-12T03:24:13;7.70;;;3.40;;
21663;SDS011;10993;52.510;13.456;2023-08-12T03:29:13;5.20;;;3.70;;
21663;SDS011;10993;52.510;13.456;2023-08-12T03:34:13;5.10;;;3.70;;
21663;SDS011;10993;52.510;13.456;2023-08-12T03:39:15;5.35;;;3.17;;
21663;SDS011;10993;52.510;13.456;2023-08-12T03:44:16;4.93;;;3.60;;
21663;SDS011;10993;52.510;13.456;2023-08-12T03:49:16;7.40;;;3.67;;
21663;SDS011;10993;52.510;13.456;2023-08-12T03:54:18;6.63;;;4.07;;
21663;SDS011;10993;52.510;13.456;2023-08-12T03:59:18;6.43;;;3.60;;
21663;SDS011;10993;52.510;13.456;2023-08-12T04:04:19;5.50;;;3.50;;
21663;SDS011;10993;52.510;13.456;2023-08-12T04:09:20;9.00;;;3.67;;
21663;SDS011;10993;52.510;13.456;2023-08-12T04:14:21;5.10;;;3.72;;
21663;SDS011;10993;52.510;13.456;2023-08-12T04:19:21;4.20;;;3.43;;
21663;SDS011;10993;52.510;13.456;2023-08-12T04:24:22;5.03;;;3.38;;
21663;SDS011;10993;52.510;13.456;2023-08-12T04:29:23;6.97;;;3.33;;
21663;SDS011;10993;52.510;13.456;2023-08-12T04:34:23;5.10;;;2.85;;
21663;SDS011;10993;52.510;13.456;2023-08-12T04:39:25;4.35;;;2.75;;
21663;SDS011;10993;52.510;13.456;2023-08-12T04:44:25;5.00;;;2.95;;
21663;SDS011;10993;52.510;13.456;2023-08-12T04:49:26;4.77;;;2.90;;
21663;SDS011;10993;52.510;13.456;2023-08-12T04:54:28;5.10;;;2.67;;
21663;SDS011;10993;52.510;13.456;2023-08-12T04:59:28;6.07;;;2.80;;
21663;SDS011;10993;52.510;13.456;2023-08-12T05:04:29;5.17;;;2.30;;
21663;SDS011;10993;52.510;13.456;2023-08-12T05:09:30;5.43;;;2.50;;
21663;SDS011;10993;52.510;13.456;2023-08-12T05:14:31;3.90;;;2.50;;
21663;SDS011;10993;52.510;13.456;2023-08-12T05:19:31;3.93;;;2.60;;
21663;SDS011;10993;52.510;13.456;2023-08-12T05:24:33;5.00;;;2.60;;
21663;SDS011;10993;52.510;13.456;2023-08-12T05:29:33;5.75;;;2.10;;
21663;SDS011;10993;52.510;13.456;2023-08-12T05:34:34;4.23;;;2.10;;
21663;SDS011;10993;52.510;13.456;2023-08-12T05:39:35;6.13;;;2.20;;
21663;SDS011;10993;52.510;13.456;2023-08-12T05:44:36;2.85;;;2.10;;
21663;SDS011;10993;52.510;13.456;2023-08-12T05:49:36;3.15;;;1.85;;
21663;SDS011;10993;52.510;13.456;2023-08-12T05:54:38;2.55;;;1.70;;
21663;SDS011;10993;52.510;13.456;2023-08-12T05:59:38;3.05;;;1.88;;
21663;SDS011;10993;52.510;13.456;2023-08-12T06:04:38;4.83;;;2.40;;
21663;SDS011;10993;52.510;13.456;2023-08-12T06:09:40;5.87;;;2.30;;
21663;SDS011;10993;52.510;13.456;2023-08-12T06:14:40;4.93;;;2.15;;
21663;SDS011;10993;52.510;13.456;2023-08-12T06:19:41;3.13;;;2.00;;
21663;SDS011;10993;52.510;13.456;2023-08-12T06:24:42;5.38;;;2.47;;
21663;SDS011;10993;52.510;13.456;2023-08-12T06:29:43;4.18;;;2.30;;
21663;SDS011;10993;52.510;13.456;2023-08-12T06:34:43;3.30;;;1.97;;
21663;SDS011;10993;52.510;13.456;2023-08-12T06:39:45;5.43;;;2.07;;
21663;SDS011;10993;52.510;13.456;2023-08-12T06:44:45;4.20;;;2.13;;
21663;SDS011;10993;52.510;13.456;2023-08-12T06:49:45;4.00;;;2.10;;
21663;SDS011;10993;52.510;13.456;2023-08-12T06:54:47;3.87;;;2.00;;
21663;SDS011;10993;52.510;13.456;2023-08-12T06:59:48;5.28;;;2.08;;
21663;SDS011;10993;52.510;13.456;2023-08-12T07:04:48;6.43;;;2.42;;
21663;SDS011;10993;52.510;13.456;2023-08-12T07:09:50;5.00;;;2.40;;
21663;SDS011;10993;52.510;13.456;2023-08-12T07:14:50;4.15;;;2.60;;
21663;SDS011;10993;52.510;13.456;2023-08-12T07:19:50;4.07;;;2.47;;
21663;SDS011;10993;52.510;13.456;2023-08-12T07:24:52;4.00;;;2.22;;
21663;SDS011;10993;52.510;13.456;2023-08-12T07:29:53;4.28;;;2.03;;
21663;SDS011;10993;52.510;13.456;2023-08-12T07:34:53;3.60;;;2.28;;
21663;SDS011;10993;52.510;13.456;2023-08-12T07:39:55;5.50;;;2.20;;
21663;SDS011;10993;52.510;13.456;2023-08-12T07:44:56;3.08;;;2.00;;
21663;SDS011;10993;52.510;13.456;2023-08-12T07:49:56;4.93;;;2.60;;
21663;SDS011;10993;52.510;13.456;2023-08-12T07:54:58;3.80;;;2.25;;
21663;SDS011;10993;52.510;13.456;2023-08-12T07:59:58;5.32;;;2.65;;
21663;SDS011;10993;52.510;13.456;2023-08-12T08:04:58;4.78;;;2.90;;
21663;SDS011;10993;52.510;13.456;2023-08-12T08:10:00;5.53;;;2.30;;
21663;SDS011;10993;52.510;13.456;2023-08-12T08:15:01;4.38;;;2.53;;
21663;SDS011;10993;52.510;13.456;2023-08-12T08:20:03;3.95;;;2.20;;
21663;SDS011;10993;52.510;13.456;2023-08-12T08:25:07;3.45;;;2.33;;
21663;SDS011;10993;52.510;13.456;2023-08-12T08:30:09;3.05;;;2.30;;
21663;SDS011;10993;52.510;13.456;2023-08-12T08:35:10;5.95;;;2.45;;
21663;SDS011;10993;52.510;13.456;2023-08-12T08:40:11;6.57;;;2.53;;
21663;SDS011;10993;52.510;13.456;2023-08-12T08:45:12;4.70;;;2.55;;
21663;SDS011;10993;52.510;13.456;2023-08-12T08:50:14;4.20;;;2.80;;
21663;SDS011;10993;52.510;13.456;2023-08-12T08:55:16;5.47;;;2.90;;
21663;SDS011;10993;52.510;13.456;2023-08-12T09:00:17;5.53;;;2.90;;
21663;SDS011;10993;52.510;13.456;2023-08-12T09:05:18;5.00;;;2.80;;
21663;SDS011;10993;52.510;13.456;2023-08-12T09:10:22;5.82;;;3.10;;
21663;SDS011;10993;52.510;13.456;2023-08-12T09:15:26;5.53;;;3.05;;
21663;SDS011;10993;52.510;13.456;2023-08-12T09:20:26;6.03;;;3.00;;
21663;SDS011;10993;52.510;13.456;2023-08-12T09:25:28;6.32;;;3.00;;
21663;SDS011;10993;52.510;13.456;2023-08-12T09:30:32;4.63;;;3.17;;
21663;SDS011;10993;52.510;13.456;2023-08-12T09:35:33;7.55;;;2.67;;
21663;SDS011;10993;52.510;13.456;2023-08-12T09:40:36;5.72;;;3.13;;
21663;SDS011;10993;52.510;13.456;2023-08-12T09:45:37;5.50;;;3.22;;
21663;SDS011;10993;52.510;13.456;2023-08-12T09:50:37;9.53;;;2.60;;
21663;SDS011;10993;52.510;13.456;2023-08-12T09:55:39;5.93;;;2.78;;
21663;SDS011;10993;52.510;13.456;2023-08-12T10:00:41;5.32;;;2.45;;
21663;SDS011;10993;52.510;13.456;2023-08-12T10:05:42;5.30;;;2.83;;
21663;SDS011;10993;52.510;13.456;2023-08-12T10:10:44;4.05;;;2.95;;
21663;SDS011;10993;52.510;13.456;2023-08-12T10:15:45;4.32;;;3.00;;
21663;SDS011;10993;52.510;13.456;2023-08-12T10:20:45;4.80;;;2.60;;
21663;SDS011;10993;52.510;13.456;2023-08-12T10:25:49;5.53;;;3.13;;
21663;SDS011;10993;52.510;13.456;2023-08-12T10:30:53;5.50;;;3.10;;
21663;SDS011;10993;52.510;13.456;2023-08-12T10:35:54;6.07;;;2.97;;
21663;SDS011;10993;52.510;13.456;2023-08-12T10:41:10;7.75;;;3.40;;
21663;SDS011;10993;52.510;13.456;2023-08-12T10:46:20;7.45;;;3.58;;
21663;SDS011;10993;52.510;13.456;2023-08-12T10:51:32;5.07;;;3.15;;
21663;SDS011;10993;52.510;13.456;2023-08-12T11:02:13;5.95;;;3.15;;
21663;SDS011;10993;52.510;13.456;2023-08-12T11:07:17;6.50;;;3.35;;
21663;SDS011;10993;52.510;13.456;2023-08-12T11:12:21;4.97;;;3.17;;
21663;SDS011;10993;52.510;13.456;2023-08-12T11:17:29;4.78;;;3.20;;
21663;SDS011;10993;52.510;13.456;2023-08-12T11:22:32;6.00;;;3.40;;
21663;SDS011;10993;52.510;13.456;2023-08-12T11:27:41;6.32;;;3.67;;
21663;SDS011;10993;52.510;13.456;2023-08-12T11:32:43;4.65;;;3.05;;
21663;SDS011;10993;52.510;13.456;2023-08-12T11:37:45;4.43;;;3.00;;
21663;SDS011;10993;52.510;13.456;2023-08-12T11:42:48;4.18;;;2.80;;
21663;SDS011;10993;52.510;13.456;2023-08-12T11:47:50;4.30;;;2.60;;
21663;SDS011;10993;52.510;13.456;2023-08-12T11:52:55;5.47;;;2.88;;
21663;SDS011;10993;52.510;13.456;2023-08-12T11:57:57;3.17;;;2.17;;
21663;SDS011;10993;52.510;13.456;2023-08-12T12:02:58;4.15;;;2.95;;
21663;SDS011;10993;52.510;13.456;2023-08-12T12:07:58;3.57;;;2.40;;
21663;SDS011;10993;52.510;13.456;2023-08-12T12:13:00;4.18;;;2.95;;
21663;SDS011;10993;52.510;13.456;2023-08-12T12:18:02;7.00;;;3.33;;
21663;SDS011;10993;52.510;13.456;2023-08-12T12:23:04;7.72;;;4.35;;
21663;SDS011;10993;52.510;13.456;2023-08-12T12:28:07;5.07;;;2.83;;
21663;SDS011;10993;52.510;13.456;2023-08-12T12:33:07;7.05;;;3.17;;
21663;SDS011;10993;52.510;13.456;2023-08-12T12:38:08;4.50;;;2.90;;
21663;SDS011;10993;52.510;13.456;2023-08-12T12:43:09;6.82;;;3.78;;
21663;SDS011;10993;52.510;13.456;2023-08-12T12:48:10;5.25;;;2.80;;
21663;SDS011;10993;52.510;13.456;2023-08-12T12:53:10;6.68;;;3.03;;
21663;SDS011;10993;52.510;13.456;2023-08-12T12:58:12;5.15;;;3.10;;
21663;SDS011;10993;52.510;13.456;2023-08-12T13:03:13;5.28;;;2.80;;
21663;SDS011;10993;52.510;13.456;2023-08-12T13:08:13;4.80;;;3.20;;
21663;SDS011;10993;52.510;13.456;2023-08-12T13:13:15;4.53;;;2.90;;
21663;SDS011;10993;52.510;13.456;2023-08-12T13:18:16;4.60;;;2.60;;
21663;SDS011;10993;52.510;13.456;2023-08-12T13:23:16;5.15;;;2.95;;
21663;SDS011;10993;52.510;13.456;2023-08-12T13:28:18;5.18;;;3.35;;
21663;SDS011;10993;52.510;13.456;2023-08-12T13:33:18;3.85;;;2.83;;
21663;SDS011;10993;52.510;13.456;2023-08-12T13:38:19;4.00;;;2.90;;
21663;SDS011;10993;52.510;13.456;2023-08-12T13:43:20;5.97;;;2.80;;
21663;SDS011;10993;52.510;13.456;2023-08-12T13:48:20;3.83;;;2.65;;
21663;SDS011;10993;52.510;13.456;2023-08-12T13:53:21;5.17;;;2.80;;
21663;SDS011;10993;52.510;13.456;2023-08-12T13:58:23;5.90;;;2.45;;
21663;SDS011;10993;52.510;13.456;2023-08-12T14:03:23;3.60;;;2.40;;
21663;SDS011;10993;52.510;13.456;2023-08-12T14:08:23;4.70;;;2.47;;
21663;SDS011;10993;52.510;13.456;2023-08-12T14:13:25;5.97;;;2.23;;
21663;SDS011;10993;52.510;13.456;2023-08-12T14:18:25;3.67;;;2.17;;
21663;SDS011;10993;52.510;13.456;2023-08-12T14:23:25;4.00;;;2.20;;
21663;SDS011;10993;52.510;13.456;2023-08-12T14:28:27;5.60;;;2.20;;
21663;SDS011;10993;52.510;13.456;2023-08-12T14:33:28;5.57;;;2.40;;
21663;SDS011;10993;52.510;13.456;2023-08-12T14:38:29;3.85;;;2.20;;
21663;SDS011;10993;52.510;13.456;2023-08-12T14:43:30;7.17;;;2.20;;
21663;SDS011;10993;52.510;13.456;2023-08-12T14:48:31;4.47;;;2.35;;
21663;SDS011;10993;52.510;13.456;2023-08-12T14:53:31;5.13;;;3.10;;
21663;SDS011;10993;52.510;13.456;2023-08-12T14:58:33;4.33;;;2.13;;
21663;SDS011;10993;52.510;13.456;2023-08-12T15:03:34;3.00;;;1.90;;
21663;SDS011;10993;52.510;13.456;2023-08-12T15:08:35;3.77;;;2.57;;
21663;SDS011;10993;52.510;13.456;2023-08-12T15:13:36;3.92;;;2.15;;
21663;SDS011;10993;52.510;13.456;2023-08-12T15:18:36;3.53;;;2.50;;
21663;SDS011;10993;52.510;13.456;2023-08-12T15:23:37;4.10;;;2.40;;
21663;SDS011;10993;52.510;13.456;2023-08-12T15:28:38;5.73;;;2.43;;
21663;SDS011;10993;52.510;13.456;2023-08-12T15:33:39;4.97;;;2.53;;
21663;SDS011;10993;52.510;13.456;2023-08-12T15:38:39;3.17;;;2.22;;
21663;SDS011;10993;52.510;13.456;2023-08-12T15:43:41;3.43;;;2.20;;
21663;SDS011;10993;52.510;13.456;2023-08-12T15:48:42;4.35;;;2.55;;
21663;SDS011;10993;52.510;13.456;2023-08-12T15:53:42;4.15;;;2.47;;
21663;SDS011;10993;52.510;13.456;2023-08-12T15:58:44;3.72;;;2.40;;
21663;SDS011;10993;52.510;13.456;2023-08-12T16:03:44;4.15;;;2.67;;
21663;SDS011;10993;52.510;13.456;2023-08-12T16:08:45;3.33;;;2.35;;
21663;SDS011;10993;52.510;13.456;2023-08-12T16:13:47;5.97;;;2.17;;
21663;SDS011;10993;52.510;13.456;2023-08-12T16:18:47;4.65;;;2.63;;
21663;SDS011;10993;52.510;13.456;2023-08-12T16:23:47;5.07;;;2.83;;
21663;SDS011;10993;52.510;13.456;2023-08-12T16:28:49;4.43;;;3.03;;
21663;SDS011;10993;52.510;13.456;2023-08-12T16:33:49;5.90;;;2.90;;
21663;SDS011;10993;52.510;13.456;2023-08-12T16:38:50;5.70;;;2.95;;
21663;SDS011;10993;52.510;13.456;2023-08-12T16:43:51;6.63;;;2.80;;
21663;SDS011;10993;52.510;13.456;2023-08-12T16:48:52;5.32;;;2.85;;
21663;SDS011;10993;52.510;13.456;2023-08-12T16:53:52;4.57;;;2.70;;
21663;SDS011;10993;52.510;13.456;2023-08-12T16:58:53;4.70;;;2.70;;
21663;SDS011;10993;52.510;13.456;2023-08-12T17:03:54;3.90;;;2.22;;
21663;SDS011;10993;52.510;13.456;2023-08-12T17:08:55;4.25;;;2.45;;
21663;SDS011;10993;52.510;13.456;2023-08-12T17:13:56;4.47;;;2.70;;
21663;SDS011;10993;52.510;13.456;2023-08-12T17:18:57;3.72;;;2.50;;
21663;SDS011;10993;52.510;13.456;2023-08-12T17:23:57;5.03;;;2.90;;
21663;SDS011;10993;52.510;13.456;2023-08-12T17:28:59;5.53;;;2.90;;
21663;SDS011;10993;52.510;13.456;2023-08-12T17:33:59;4.70;;;2.80;;
21663;SDS011;10993;52.510;13.456;2023-08-12T17:38:59;4.00;;;2.43;;
21663;SDS011;10993;52.510;13.456;2023-08-12T17:44:01;5.22;;;2.67;;
21663;SDS011;10993;52.510;13.456;2023-08-12T17:49:01;4.50;;;2.85;;
21663;SDS011;10993;52.510;13.456;2023-08-12T17:54:02;4.97;;;3.03;;
21663;SDS011;10993;52.510;13.456;2023-08-12T17:59:04;4.95;;;2.88;;
21663;SDS011;10993;52.510;13.456;2023-08-12T18:04:05;5.82;;;3.13;;
21663;SDS011;10993;52.510;13.456;2023-08-12T18:09:05;4.65;;;3.20;;
21663;SDS011;10993;52.510;13.456;2023-08-12T18:14:07;6.43;;;3.20;;
21663;SDS011;10993;52.510;13.456;2023-08-12T18:19:08;5.93;;;3.35;;
21663;SDS011;10993;52.510;13.456;2023-08-12T18:24:08;5.40;;;3.45;;
21663;SDS011;10993;52.510;13.456;2023-08-12T18:29:10;7.95;;;4.13;;
21663;SDS011;10993;52.510;13.456;2023-08-12T18:34:10;4.40;;;3.13;;
21663;SDS011;10993;52.510;13.456;2023-08-12T18:39:11;7.03;;;3.08;;
21663;SDS011;10993;52.510;13.456;2023-08-12T18:44:13;6.38;;;3.10;;
21663;SDS011;10993;52.510;13.456;2023-08-12T18:49:13;4.72;;;2.50;;
21663;SDS011;10993;52.510;13.456;2023-08-12T18:54:13;4.28;;;2.60;;
21663;SDS011;10993;52.510;13.456;2023-08-12T18:59:15;7.75;;;3.08;;
21663;SDS011;10993;52.510;13.456;2023-08-12T19:04:15;5.32;;;2.90;;
21663;SDS011;10993;52.510;13.456;2023-08-12T19:09:16;4.85;;;3.17;;
21663;SDS011;10993;52.510;13.456;2023-08-12T19:14:18;6.25;;;3.92;;
21663;SDS011;10993;52.510;13.456;2023-08-12T19:19:19;7.55;;;4.05;;
21663;SDS011;10993;52.510;13.456;2023-08-12T19:24:20;8.75;;;5.97;;
21663;SDS011;10993;52.510;13.456;2023-08-12T19:29:21;8.40;;;5.20;;
21663;SDS011;10993;52.510;13.456;2023-08-12T19:34:22;6.25;;;4.22;;
21663;SDS011;10993;52.510;13.456;2023-08-12T19:39:22;9.15;;;5.63;;
21663;SDS011;10993;52.510;13.456;2023-08-12T19:44:24;7.07;;;5.43;;
21663;SDS011;10993;52.510;13.456;2023-08-12T19:49:24;10.00;;;5.53;;
21663;SDS011;10993;52.510;13.456;2023-08-12T19:54:25;9.50;;;5.45;;
21663;SDS011;10993;52.510;13.456;2023-08-12T19:59:27;12.38;;;5.78;;
21663;SDS011;10993;52.510;13.456;2023-08-12T20:04:29;6.55;;;4.70;;
21663;SDS011;10993;52.510;13.456;2023-08-12T20:09:29;8.15;;;5.50;;
21663;SDS011;10993;52.510;13.456;2023-08-12T20:14:31;8.37;;;5.70;;
21663;SDS011;10993;52.510;13.456;2023-08-12T20:19:32;8.00;;;4.60;;
21663;SDS011;10993;52.510;13.456;2023-08-12T20:24:33;8.27;;;5.25;;
21663;SDS011;10993;52.510;13.456;2023-08-12T20:29:34;8.60;;;5.77;;
21663;SDS011;10993;52.510;13.456;2023-08-12T20:34:35;10.73;;;5.95;;
21663;SDS011;10993;52.510;13.456;2023-08-12T20:39:35;8.68;;;5.30;;
21663;SDS011;10993;52.510;13.456;2023-08-12T20:44:37;8.57;;;5.70;;
21663;SDS011;10993;52.510;13.456;2023-08-12T20:49:37;13.23;;;9.38;;
21663;SDS011;10993;52.510;13.456;2023-08-12T20:54:38;8.63;;;5.70;;
21663;SDS011;10993;52.510;13.456;2023-08-12T20:59:39;7.20;;;4.70;;
21663;SDS011;10993;52.510;13.456;2023-08-12T21:04:40;9.48;;;5.07;;
21663;SDS011;10993;52.510;13.456;2023-08-12T21:09:40;10.00;;;5.32;;
21663;SDS011;10993;52.510;13.456;2023-08-12T21:14:42;10.80;;;6.00;;
21663;SDS011;10993;52.510;13.456;2023-08-12T21:19:42;9.23;;;5.85;;
21663;SDS011;10993;52.510;13.456;2023-08-12T21:24:42;10.43;;;5.20;;
21663;SDS011;10993;52.510;13.456;2023-08-12T21:29:44;8.17;;;5.07;;
21663;SDS011;10993;52.510;13.456;2023-08-12T21:34:44;8.68;;;4.65;;
21663;SDS011;10993;52.510;13.456;2023-08-12T21:39:45;10.43;;;5.30;;
21663;SDS011;10993;52.510;13.456;2023-08-12T21:44:46;10.00;;;5.32;;
21663;SDS011;10993;52.510;13.456;2023-08-12T21:49:47;11.85;;;7.78;;
21663;SDS011;10993;52.510;13.456;2023-08-12T21:54:47;13.40;;;6.87;;
21663;SDS011;10993;52.510;13.456;2023-08-12T21:59:49;10.88;;;6.97;;
21663;SDS011;10993;52.510;13.456;2023-08-12T22:04:49;17.95;;;9.90;;
21663;SDS011;10993;52.510;13.456;2023-08-12T22:09:49;13.07;;;7.20;;
21663;SDS011;10993;52.510;13.456;2023-08-12T22:14:51;12.13;;;6.47;;
21663;SDS011;10993;52.510;13.456;2023-08-12T22:19:52;9.70;;;5.40;;
21663;SDS011;10993;52.510;13.456;2023-08-12T22:24:52;9.57;;;4.87;;
21663;SDS011;10993;52.510;13.456;2023-08-12T22:29:54;9.80;;;5.00;;
21663;SDS011;10993;52.510;13.456;2023-08-12T22:34:54;7.80;;;4.60;;
21663;SDS011;10993;52.510;13.456;2023-08-12T22:39:54;7.53;;;3.90;;
21663;SDS011;10993;52.510;13.456;2023-08-12T22:44:56;9.23;;;4.27;;
21663;SDS011;10993;52.510;13.456;2023-08-12T22:49:56;4.88;;;3.08;;
21663;SDS011;10993;52.510;13.456;2023-08-12T22:54:57;5.53;;;3.10;;
21663;SDS011;10993;52.510;13.456;2023-08-12T22:59:59;4.53;;;2.30;;
21663;SDS011;10993;52.510;13.456;2023-08-12T23:04:59;5.43;;;2.67;;
21663;SDS011;10993;52.510;13.456;2023-08-12T23:09:59;5.22;;;2.92;;
21663;SDS011;10993;52.510;13.456;2023-08-12T23:15:01;4.13;;;2.90;;
21663;SDS011;10993;52.510;13.456;2023-08-12T23:20:03;4.68;;;2.85;;
21663;SDS011;10993;52.510;13.456;2023-08-12T23:25:06;5.50;;;3.10;;
21663;SDS011;10993;52.510;13.456;2023-08-12T23:30:09;7.07;;;3.72;;
21663;SDS011;10993;52.510;13.456;2023-08-12T23:35:13;6.38;;;3.33;;
21663;SDS011;10993;52.510;13.456;2023-08-12T23:40:18;4.95;;;2.90;;
21663;SDS011;10993;52.510;13.456;2023-08-12T23:45:19;6.10;;;2.45;;
21663;SDS011;10993;52.510;13.456;2023-08-12T23:50:20;7.57;;;2.80;;
21663;SDS011;10993;52.510;13.456;2023-08-12T23:55:20;5.40;;;3.20;;
